createdAt,value
2019-04-26T00:12:24.900Z,15.32
2019-04-26T00:27:31.718Z,14.13
2019-04-26T00:42:39.030Z,16.90
2019-04-26T00:57:47.510Z,15.28
2019-04-26T01:12:55.415Z,13.93
2019-04-26T01:28:03.442Z,16.17
2019-04-26T01:43:16.723Z,24.40
2019-04-26T01:58:25.248Z,17.32
2019-04-26T02:13:33.070Z,15.65
2019-04-26T02:28:41.150Z,15.32
2019-04-26T02:43:50.849Z,19.82
2019-04-26T02:59:05.557Z,14.40
2019-04-26T03:14:15.213Z,18.30
2019-04-26T03:29:45.909Z,12.10
2019-04-26T03:45:16.465Z,15.88
2019-04-26T04:00:31.490Z,17.23
2019-04-26T04:15:46.767Z,15.55
2019-04-26T04:31:29.296Z,12.28
2019-04-26T04:47:24.189Z,19.98
2019-04-26T05:02:51.701Z,21.07
2019-04-26T05:18:22.496Z,13.38
2019-04-26T05:33:40.186Z,16.77
2019-04-26T05:49:34.000Z,13.03
2019-04-26T06:05:14.943Z,16.12
2019-04-26T06:20:47.431Z,13.35
2019-04-26T06:35:56.218Z,15.43
2019-04-26T06:51:23.795Z,15.00
2019-04-26T07:06:46.066Z,12.85
2019-04-26T07:22:35.903Z,11.60
2019-04-26T07:38:18.660Z,8.93
2019-04-26T07:53:43.103Z,13.18
2019-04-26T08:09:01.235Z,15.63
2019-04-26T08:24:16.728Z,11.93
2019-04-26T08:39:32.543Z,13.98
2019-04-26T08:54:41.341Z,19.25
2019-04-26T09:09:57.332Z,13.25
2019-04-26T09:25:14.929Z,9.75
2019-04-26T09:40:22.881Z,15.83
2019-04-26T09:55:35.575Z,14.30
2019-04-26T10:10:38.668Z,16.10
2019-04-26T10:25:47.303Z,17.62
2019-04-26T10:40:55.192Z,18.02
2019-04-26T10:56:10.826Z,23.02
2019-04-26T11:11:18.036Z,17.67
2019-04-26T11:26:26.024Z,22.87
2019-04-26T11:41:34.011Z,16.37
2019-04-26T11:56:41.113Z,21.68
2019-04-26T12:11:50.961Z,22.17
2019-04-26T12:26:57.707Z,25.68
2019-04-26T12:42:08.290Z,25.08
2019-04-26T12:57:16.476Z,39.65
2019-04-26T13:12:26.002Z,25.43
2019-04-26T13:27:34.634Z,36.33
2019-04-26T13:42:47.413Z,30.85
2019-04-26T13:57:55.872Z,30.62
2019-04-26T14:13:02.711Z,25.95
2019-04-26T14:28:12.023Z,36.00
2019-04-26T14:43:22.449Z,35.33
2019-04-26T14:58:30.441Z,29.98
2019-04-26T15:13:40.557Z,34.08
2019-04-26T15:28:50.364Z,39.58
2019-04-26T15:44:05.485Z,33.40
2019-04-26T15:59:12.814Z,28.27
2019-04-26T16:14:24.951Z,29.48
2019-04-26T16:29:39.965Z,44.15
2019-04-26T16:44:46.993Z,48.75
2019-04-26T16:59:57.564Z,40.63
2019-04-26T17:15:03.472Z,34.25
2019-04-26T17:30:13.780Z,46.13
2019-04-26T17:45:23.859Z,56.13
2019-04-26T18:00:45.601Z,78.57
2019-04-26T18:15:46.925Z,41.02
2019-04-26T18:30:53.072Z,47.25
2019-04-26T18:46:08.073Z,40.03
2019-04-26T19:01:17.132Z,31.02
2019-04-26T19:16:42.261Z,46.58
2019-04-26T19:31:52.333Z,46.55
2019-04-26T19:47:07.755Z,50.10
2019-04-26T20:02:15.039Z,54.30
2019-04-26T20:17:23.580Z,48.80
2019-04-26T20:32:35.090Z,34.60
2019-04-26T20:47:41.898Z,40.45
2019-04-26T21:02:48.897Z,31.87
2019-04-26T21:17:56.601Z,36.05
2019-04-26T21:33:07.010Z,35.33
2019-04-26T21:48:18.306Z,35.00
2019-04-26T22:03:24.271Z,23.65
2019-04-26T22:18:35.582Z,37.15
2019-04-26T22:33:42.882Z,19.60
2019-04-26T22:49:01.012Z,37.90
2019-04-26T23:04:03.432Z,34.65
2019-04-26T23:19:19.278Z,29.07
2019-04-26T23:34:25.230Z,35.05
2019-04-26T23:49:33.429Z,39.35
